createdAt,value
2022-11-05T00:04:47.507Z,8.63
2022-11-05T00:09:47.619Z,8.51
2022-11-05T00:14:46.799Z,8.66
2022-11-05T00:19:48.216Z,8.68
2022-11-05T00:24:49.505Z,8.69
2022-11-05T00:29:50.843Z,8.72
2022-11-05T00:34:51.953Z,8.78
2022-11-05T00:39:56.085Z,8.73
2022-11-05T00:44:53.321Z,8.75
2022-11-05T00:49:54.528Z,8.73
2022-11-05T00:54:55.839Z,8.86
2022-11-05T00:59:58.008Z,8.72
2022-11-05T01:04:57.236Z,8.76
2022-11-05T01:09:58.436Z,8.78
2022-11-05T01:15:00.921Z,8.75
2022-11-05T01:20:00.565Z,8.71
2022-11-05T01:25:00.690Z,8.68
2022-11-05T01:29:59.891Z,8.58
2022-11-05T01:35:03.049Z,8.62
2022-11-05T01:40:03.159Z,8.60
2022-11-05T01:45:03.790Z,8.65
2022-11-05T01:50:02.893Z,8.68
2022-11-05T01:55:04.010Z,8.72
2022-11-05T02:00:06.112Z,8.71
2022-11-05T02:05:05.208Z,8.65
2022-11-05T02:10:07.321Z,8.68
2022-11-05T02:15:06.421Z,8.66
2022-11-05T02:20:07.556Z,8.69
2022-11-05T02:25:08.697Z,8.76
2022-11-05T02:30:10.795Z,8.71
2022-11-05T02:35:09.937Z,8.66
2022-11-05T02:40:11.246Z,8.73
2022-11-05T02:45:10.713Z,8.54
2022-11-05T02:50:12.873Z,8.53
2022-11-05T02:55:11.970Z,8.37
2022-11-05T03:00:13.184Z,8.35
2022-11-05T03:05:14.453Z,8.30
2022-11-05T03:10:15.547Z,8.36
2022-11-05T03:15:16.747Z,8.36
2022-11-05T03:20:17.866Z,8.36
2022-11-05T03:25:18.974Z,8.33
2022-11-05T03:30:20.214Z,8.35
2022-11-05T03:35:22.316Z,8.30
2022-11-05T03:40:22.507Z,8.35
2022-11-05T03:45:22.615Z,8.58
2022-11-05T03:50:22.703Z,8.25
2022-11-05T03:55:22.870Z,8.28
2022-11-05T04:00:22.155Z,8.33
2022-11-05T04:05:23.596Z,8.29
2022-11-05T04:10:25.727Z,8.37
2022-11-05T04:15:24.891Z,8.42
2022-11-05T04:20:26.982Z,8.42
2022-11-05T04:25:26.078Z,8.37
2022-11-05T04:30:27.200Z,8.40
2022-11-05T04:35:30.347Z,8.39
2022-11-05T04:40:30.512Z,8.30
2022-11-05T04:45:31.814Z,8.18
2022-11-05T04:50:31.956Z,8.08
2022-11-05T04:55:32.063Z,8.30
2022-11-05T05:00:31.307Z,8.22
2022-11-05T05:05:32.484Z,8.26
2022-11-05T05:10:34.573Z,8.32
2022-11-05T05:15:34.672Z,8.37
2022-11-05T05:20:33.774Z,8.33
2022-11-05T05:25:34.882Z,8.37
2022-11-05T05:30:36.967Z,8.20
2022-11-05T05:35:37.100Z,8.26
2022-11-05T05:40:36.197Z,8.14
2022-11-05T05:45:38.299Z,8.32
2022-11-05T05:50:38.451Z,8.25
2022-11-05T05:55:37.585Z,8.14
2022-11-05T06:00:38.682Z,8.08
2022-11-05T06:05:40.783Z,8.14
2022-11-05T06:10:39.975Z,8.22
2022-11-05T06:15:41.130Z,8.30
2022-11-05T06:20:43.362Z,8.33
2022-11-05T06:25:43.794Z,8.29
2022-11-05T06:30:42.880Z,8.20
2022-11-05T06:35:43.979Z,8.44
2022-11-05T06:40:46.219Z,8.42
2022-11-05T06:45:45.382Z,8.28
2022-11-05T06:50:47.549Z,8.08
2022-11-05T06:55:47.679Z,8.15
2022-11-05T07:00:47.885Z,8.22
2022-11-05T07:05:48.040Z,8.39
2022-11-05T07:10:47.132Z,8.45
2022-11-05T07:15:48.234Z,8.48
2022-11-05T07:20:49.360Z,8.63
2022-11-05T07:25:50.508Z,8.71
2022-11-05T07:30:52.596Z,8.71
2022-11-05T07:35:51.729Z,8.72
2022-11-05T07:40:53.853Z,8.78
2022-11-05T07:45:53.995Z,9.01
2022-11-05T07:50:53.102Z,9.25
2022-11-05T07:55:55.224Z,9.21
2022-11-05T08:00:54.449Z,8.72
2022-11-05T08:05:56.711Z,8.69
2022-11-05T08:10:56.929Z,8.79
2022-11-05T08:15:56.043Z,9.01
2022-11-05T08:20:59.409Z,9.20
2022-11-05T08:25:59.578Z,9.50
2022-11-05T08:30:59.670Z,9.52
2022-11-05T08:35:58.823Z,9.63
2022-11-05T08:41:00.922Z,9.61
2022-11-05T08:46:01.028Z,9.24
2022-11-05T08:51:00.155Z,9.06
2022-11-05T08:56:02.299Z,8.97
2022-11-05T09:01:05.171Z,8.91
2022-11-05T09:06:02.571Z,9.27
2022-11-05T09:11:04.724Z,9.32
2022-11-05T09:16:03.887Z,9.58
2022-11-05T09:21:06.017Z,9.71
2022-11-05T09:26:05.151Z,9.85
2022-11-05T09:31:06.251Z,10.04
2022-11-05T09:36:07.374Z,10.22
2022-11-05T09:41:09.616Z,10.52
2022-11-05T09:46:08.769Z,10.55
2022-11-05T09:51:09.985Z,10.39
2022-11-05T09:56:13.157Z,10.01
2022-11-05T10:01:12.288Z,10.10
2022-11-05T10:06:14.405Z,10.22
2022-11-05T10:11:13.526Z,10.77
2022-11-05T10:16:14.668Z,11.25
2022-11-05T10:21:15.984Z,11.65
2022-11-05T10:26:17.228Z,11.65
2022-11-05T10:31:18.525Z,11.16
2022-11-05T10:36:20.596Z,10.40
2022-11-05T10:41:19.853Z,10.52
2022-11-05T10:46:21.268Z,10.94
2022-11-05T10:51:22.483Z,11.57
2022-11-05T10:56:23.611Z,11.97
2022-11-05T11:01:24.870Z,11.49
2022-11-05T11:06:27.226Z,10.91
2022-11-05T11:11:26.327Z,11.21
2022-11-05T11:16:27.621Z,11.50
2022-11-05T11:21:28.809Z,11.16
2022-11-05T11:26:29.955Z,10.56
2022-11-05T11:31:33.058Z,10.84
2022-11-05T11:36:32.150Z,10.92
2022-11-05T11:41:32.277Z,11.06
2022-11-05T11:46:33.659Z,10.51
2022-11-05T11:51:34.944Z,10.92
2022-11-05T11:56:36.040Z,10.83
2022-11-05T12:01:37.204Z,10.76
2022-11-05T12:06:38.332Z,10.80
2022-11-05T12:11:40.473Z,10.86
2022-11-05T12:16:41.593Z,10.84
2022-11-05T12:21:52.621Z,10.98
2022-11-05T12:26:40.829Z,10.91
2022-11-05T12:31:42.969Z,10.80
2022-11-05T12:36:42.097Z,10.73
2022-11-05T12:41:43.211Z,10.65
2022-11-05T12:46:44.340Z,10.65
2022-11-05T12:51:45.735Z,10.76
2022-11-05T12:56:46.881Z,10.66
2022-11-05T13:01:48.288Z,10.84
2022-11-05T13:06:48.732Z,10.73
2022-11-05T13:11:47.984Z,10.94
2022-11-05T13:16:49.381Z,10.88
2022-11-05T13:21:50.977Z,10.98
2022-11-05T13:26:50.386Z,11.29
2022-11-05T13:31:51.758Z,11.19
2022-11-05T13:36:51.619Z,11.57
2022-11-05T13:41:52.964Z,11.89
2022-11-05T13:46:54.227Z,11.96
2022-11-05T13:51:55.608Z,11.99
2022-11-05T13:56:56.990Z,12.05
2022-11-05T14:01:58.463Z,12.04
2022-11-05T14:06:57.935Z,12.11
2022-11-05T14:11:59.396Z,11.57
2022-11-05T14:17:01.669Z,11.72
2022-11-05T14:22:01.885Z,11.43
2022-11-05T14:27:01.402Z,11.50
2022-11-05T14:32:09.348Z,11.47
2022-11-05T14:37:01.732Z,11.62
2022-11-05T14:42:01.052Z,11.62
2022-11-05T14:47:02.435Z,11.71
2022-11-05T14:52:02.001Z,11.89
2022-11-05T14:57:02.178Z,11.90
2022-11-05T15:02:02.593Z,11.89
2022-11-05T15:07:03.141Z,11.78
2022-11-05T15:12:03.364Z,11.57
2022-11-05T15:17:02.659Z,11.53
2022-11-05T15:22:04.777Z,11.44
2022-11-05T15:27:03.865Z,11.41
2022-11-05T15:32:04.959Z,11.11
2022-11-05T15:37:07.086Z,10.99
2022-11-05T15:42:06.390Z,10.80
2022-11-05T15:47:08.493Z,10.14
2022-11-05T15:52:07.625Z,9.76
2022-11-05T15:57:08.941Z,9.67
2022-11-05T16:02:10.304Z,9.49
2022-11-05T16:07:11.527Z,9.34
2022-11-05T16:12:13.880Z,9.32
2022-11-05T16:17:12.131Z,9.12
2022-11-05T16:22:13.362Z,8.84
2022-11-05T16:27:19.323Z,8.76
2022-11-05T16:32:15.247Z,8.76
2022-11-05T16:37:16.833Z,8.87
2022-11-05T16:42:16.173Z,8.78
2022-11-05T16:47:17.442Z,8.62
2022-11-05T16:52:19.745Z,8.75
2022-11-05T16:57:19.141Z,8.73
2022-11-05T17:02:20.600Z,8.87
2022-11-05T17:07:19.933Z,8.86
2022-11-05T17:12:21.278Z,8.69
2022-11-05T17:17:22.767Z,8.63
2022-11-05T17:22:23.546Z,8.60
2022-11-05T17:27:23.078Z,8.72
2022-11-05T17:32:22.644Z,8.73
2022-11-05T17:37:23.754Z,8.81
2022-11-05T17:42:23.161Z,8.87
2022-11-05T17:47:25.569Z,8.93
2022-11-05T17:52:24.809Z,8.94
2022-11-05T17:57:27.069Z,8.94
2022-11-05T18:02:26.460Z,8.93
2022-11-05T18:07:31.340Z,8.93
2022-11-05T18:12:28.545Z,8.88
2022-11-05T18:17:30.996Z,8.87
2022-11-05T18:22:30.402Z,8.83
2022-11-05T18:27:32.836Z,8.73
2022-11-05T18:32:32.306Z,8.62
2022-11-05T18:37:31.811Z,8.65
2022-11-05T18:42:31.339Z,8.60
2022-11-05T18:47:30.985Z,8.47
2022-11-05T18:52:30.201Z,8.22
2022-11-05T18:57:33.288Z,8.02
2022-11-05T19:02:32.853Z,7.66
2022-11-05T19:07:32.141Z,7.45
2022-11-05T19:12:33.538Z,7.40
2022-11-05T19:17:35.013Z,7.42
2022-11-05T19:22:38.940Z,7.45
2022-11-05T19:27:35.313Z,7.44
2022-11-05T19:32:34.777Z,7.41
2022-11-05T19:37:34.223Z,7.40
2022-11-05T19:42:35.738Z,7.24
2022-11-05T19:47:35.442Z,7.22
2022-11-05T19:52:34.790Z,6.90
2022-11-05T19:57:37.113Z,6.83
2022-11-05T20:02:36.703Z,6.77
2022-11-05T20:07:36.991Z,6.61
2022-11-05T20:12:36.439Z,6.51
2022-11-05T20:17:37.827Z,6.41
2022-11-05T20:22:39.387Z,6.44
2022-11-05T20:27:39.808Z,6.32
2022-11-05T20:32:39.248Z,6.51
2022-11-05T20:37:43.771Z,6.19
2022-11-05T20:42:41.194Z,6.09
2022-11-05T20:47:43.408Z,6.01
2022-11-05T20:52:42.771Z,5.83
2022-11-05T20:57:44.935Z,5.81
2022-11-05T21:02:44.576Z,5.71
2022-11-05T21:07:44.126Z,5.49
2022-11-05T21:12:47.058Z,5.52
2022-11-05T21:17:45.418Z,5.45
2022-11-05T21:22:46.679Z,5.49
2022-11-05T21:27:47.090Z,5.46
2022-11-05T21:32:46.731Z,5.41
2022-11-05T21:37:47.976Z,5.32
2022-11-05T21:42:48.096Z,5.07
2022-11-05T21:47:47.351Z,5.20
2022-11-05T21:52:49.032Z,4.99
2022-11-05T21:57:50.475Z,4.92
2022-11-05T22:02:48.070Z,4.96
2022-11-05T22:07:47.543Z,4.94
2022-11-05T22:12:50.670Z,5.01
2022-11-05T22:17:49.755Z,4.96
2022-11-05T22:22:51.244Z,4.98
2022-11-05T22:27:50.464Z,5.04
2022-11-05T22:32:51.955Z,5.27
2022-11-05T22:37:51.075Z,5.41
2022-11-05T22:42:53.185Z,5.55
2022-11-05T22:48:06.647Z,5.55
2022-11-05T22:52:53.028Z,5.57
2022-11-05T22:57:52.253Z,5.37
2022-11-05T23:02:53.510Z,5.28
2022-11-05T23:07:55.660Z,5.10
2022-11-05T23:12:55.181Z,4.91
2022-11-05T23:17:54.306Z,4.83
2022-11-05T23:22:56.477Z,4.73
2022-11-05T23:27:57.637Z,4.64
2022-11-05T23:32:56.804Z,4.65
2022-11-05T23:37:57.915Z,4.69
2022-11-05T23:42:59.030Z,4.58
2022-11-05T23:48:00.140Z,4.73
2022-11-05T23:53:01.419Z,4.86
2022-11-05T23:58:03.577Z,5.01
